Terminal Aerodrome Forecast
Issued by NWS

Home | Current Version | Previous Version | Text Only | Print | Product List | Glossary On
Versions: 1 2 3 4 5 6 7 8 9 10 11 12 13 14 15 16 17 18 19
000
FTUS43 KIND 171400 AAA
TAFLAF
TAF AMD
KLAF 171426Z 1714/1812 21013G20KT P6SM BKN250
     FM180000 22006KT P6SM SCT040 BKN090
     FM180500 22002KT P6SM BKN040=

USA.gov is the U.S. government's official web portal to all federal, state and local government web resources and services.